Terminal Aerodrome Forecast
Issued by NWS

Home | Current Version | Previous Version | Text Only | Print | Product List | Glossary On
Versions: 1 2 3 4 5 6 7 8 9 10 11 12 13 14 15
000
FTUS45 KGGW 262300
TAFSDY
TAF
KSDY 262325Z 2700/2724 14011KT P6SM VCTS SCT070CB BKN200
     FM270400 VRB05KT P6SM SCT150
     FM272000 14015G25KT 4SM -TSRA SCT060CB BKN150
      AMD LTD TO CLD VIS AND WIND=

USA.gov is the U.S. government's official web portal to all federal, state and local government web resources and services.